createdAt,value
2024-01-15T00:01:29.958Z,69.72
2024-01-15T00:04:01.523Z,69.70
2024-01-15T00:06:34.243Z,69.70
2024-01-15T00:09:05.310Z,69.54
2024-01-15T00:11:34.694Z,69.47
2024-01-15T00:14:05.629Z,69.70
2024-01-15T00:16:36.561Z,69.12
2024-01-15T00:19:07.685Z,69.13
2024-01-15T00:21:38.816Z,69.02
2024-01-15T00:24:08.288Z,69.19
2024-01-15T00:26:39.227Z,69.18
2024-01-15T00:29:10.527Z,69.21
2024-01-15T00:31:41.725Z,69.60
2024-01-15T00:34:12.784Z,69.65
2024-01-15T00:36:43.872Z,69.79
2024-01-15T00:39:15.022Z,69.69
2024-01-15T00:41:45.987Z,69.62
2024-01-15T00:44:17.402Z,69.52
2024-01-15T00:46:49.282Z,69.93
2024-01-15T00:49:20.476Z,69.78
2024-01-15T00:51:51.698Z,69.80
2024-01-15T00:54:22.680Z,69.74
2024-01-15T00:56:53.670Z,70.53
2024-01-15T00:59:25.044Z,70.13
2024-01-15T01:01:55.940Z,70.33
2024-01-15T01:04:26.985Z,70.41
2024-01-15T01:06:56.339Z,70.83
2024-01-15T01:09:30.411Z,70.42
2024-01-15T01:12:01.480Z,70.33
2024-01-15T01:14:30.801Z,69.64
2024-01-15T01:17:01.747Z,69.45
2024-01-15T01:19:32.922Z,69.45
2024-01-15T01:22:03.985Z,69.18
2024-01-15T01:24:35.921Z,69.39
2024-01-15T01:27:07.066Z,69.50
2024-01-15T01:29:38.032Z,69.38
2024-01-15T01:32:09.363Z,69.31
2024-01-15T01:34:44.680Z,69.83
2024-01-15T01:37:16.759Z,69.41
2024-01-15T01:39:48.298Z,69.24
2024-01-15T01:42:19.607Z,69.56
2024-01-15T01:44:50.545Z,69.52
2024-01-15T01:47:21.844Z,69.54
2024-01-15T01:49:52.878Z,69.82
2024-01-15T01:52:24.414Z,70.34
2024-01-15T01:54:56.513Z,70.84
2024-01-15T01:57:27.831Z,70.62
2024-01-15T02:00:00.279Z,70.50
2024-01-15T02:02:31.361Z,70.36
2024-01-15T02:05:00.727Z,71.09
2024-01-15T02:07:31.792Z,70.97
2024-01-15T02:10:03.100Z,71.16
2024-01-15T02:12:34.522Z,71.32
2024-01-15T02:15:06.227Z,71.65
2024-01-15T02:17:37.169Z,71.45
2024-01-15T02:20:10.278Z,71.47
2024-01-15T02:22:41.320Z,71.71
2024-01-15T02:25:10.667Z,72.01
2024-01-15T02:27:41.761Z,71.53
2024-01-15T02:30:12.509Z,71.30
2024-01-15T02:32:43.585Z,71.41
2024-01-15T02:35:14.779Z,71.68
2024-01-15T02:37:44.139Z,71.50
2024-01-15T02:40:15.799Z,71.80
2024-01-15T02:42:46.735Z,71.59
2024-01-15T02:45:17.896Z,71.56
2024-01-15T02:47:48.885Z,71.45
2024-01-15T02:50:20.397Z,70.93
2024-01-15T02:52:51.575Z,70.96
2024-01-15T02:55:22.633Z,70.63
2024-01-15T02:57:51.880Z,70.73
2024-01-15T03:00:23.072Z,70.68
2024-01-15T03:02:54.713Z,70.91
2024-01-15T03:05:25.685Z,70.29
2024-01-15T03:07:54.921Z,70.32
2024-01-15T03:10:25.904Z,70.44
2024-01-15T03:12:55.259Z,70.54
2024-01-15T03:15:26.340Z,70.97
2024-01-15T03:17:55.651Z,70.76
2024-01-15T03:20:26.652Z,70.97
2024-01-15T03:22:55.963Z,71.41
2024-01-15T03:25:26.944Z,71.57
2024-01-15T03:27:57.982Z,71.50
2024-01-15T03:30:27.354Z,71.98
2024-01-15T03:32:58.475Z,71.83
2024-01-15T03:35:30.630Z,71.76
2024-01-15T03:38:01.581Z,72.41
2024-01-15T03:40:32.639Z,72.35
2024-01-15T03:43:03.641Z,72.77
2024-01-15T03:45:34.609Z,73.12
2024-01-15T03:48:03.990Z,72.80
2024-01-15T03:50:35.059Z,73.58
2024-01-15T03:53:04.362Z,73.39
2024-01-15T03:55:35.299Z,73.57
2024-01-15T03:58:06.307Z,73.72
2024-01-15T04:00:35.659Z,73.91
2024-01-15T04:03:06.813Z,73.75
2024-01-15T04:05:36.102Z,73.86
2024-01-15T04:08:07.655Z,73.93
2024-01-15T04:10:38.589Z,73.86
2024-01-15T04:13:09.493Z,73.62
2024-01-15T04:15:40.435Z,73.39
2024-01-15T04:18:11.478Z,73.38
2024-01-15T04:20:40.775Z,73.42
2024-01-15T04:23:11.750Z,73.35
2024-01-15T04:25:44.020Z,73.34
2024-01-15T04:28:15.000Z,73.41
2024-01-15T04:30:46.085Z,73.29
2024-01-15T04:33:17.134Z,73.30
2024-01-15T04:35:48.133Z,72.97
2024-01-15T04:38:19.071Z,72.86
2024-01-15T04:40:50.056Z,72.78
2024-01-15T04:43:19.294Z,73.07
2024-01-15T04:45:50.303Z,73.04
2024-01-15T04:48:19.632Z,73.58
2024-01-15T04:50:50.631Z,73.31
2024-01-15T04:53:19.868Z,73.59
2024-01-15T04:55:50.808Z,73.51
2024-01-15T04:58:21.797Z,73.62
2024-01-15T05:00:52.914Z,73.82
2024-01-15T05:03:24.385Z,73.93
2024-01-15T05:05:55.779Z,74.09
2024-01-15T05:08:26.715Z,73.80
2024-01-15T05:10:57.685Z,73.80
2024-01-15T05:13:29.197Z,73.38
2024-01-15T05:16:00.391Z,73.57
2024-01-15T05:18:31.565Z,73.47
2024-01-15T05:21:02.725Z,73.28
2024-01-15T05:23:33.271Z,73.32
2024-01-15T05:26:04.264Z,73.30
2024-01-15T05:28:35.181Z,73.22
2024-01-15T05:31:06.450Z,72.94
2024-01-15T05:33:37.549Z,73.09
2024-01-15T05:36:09.818Z,73.10
2024-01-15T05:38:40.971Z,72.79
2024-01-15T05:41:11.924Z,72.77
2024-01-15T05:43:42.839Z,72.97
2024-01-15T05:46:12.254Z,72.95
2024-01-15T05:48:43.358Z,73.02
2024-01-15T05:51:14.576Z,73.19
2024-01-15T05:53:45.348Z,73.13
2024-01-15T05:56:16.389Z,73.01
2024-01-15T05:58:45.645Z,73.06
2024-01-15T06:01:16.712Z,73.13
2024-01-15T06:03:47.757Z,73.14
2024-01-15T06:06:17.216Z,73.01
2024-01-15T06:08:48.241Z,73.23
2024-01-15T06:11:19.200Z,73.59
2024-01-15T06:13:50.107Z,73.62
2024-01-15T06:16:21.864Z,73.46
2024-01-15T06:18:52.915Z,73.60
2024-01-15T06:21:24.528Z,73.73
2024-01-15T06:23:57.551Z,73.97
2024-01-15T06:26:28.520Z,74.16
2024-01-15T06:28:59.455Z,73.64
2024-01-15T06:31:30.481Z,73.85
2024-01-15T06:34:02.459Z,73.36
2024-01-15T06:36:33.474Z,73.11
2024-01-15T06:39:02.760Z,72.83
2024-01-15T06:41:33.682Z,72.88
2024-01-15T06:44:04.704Z,72.52
2024-01-15T06:46:33.975Z,72.95
2024-01-15T06:49:05.009Z,73.92
2024-01-15T06:51:34.422Z,77.89
2024-01-15T06:54:05.554Z,74.66
2024-01-15T06:56:36.546Z,73.61
2024-01-15T06:59:07.460Z,73.05
2024-01-15T07:01:38.456Z,73.02
2024-01-15T07:04:07.709Z,73.30
2024-01-15T07:06:38.931Z,73.12
2024-01-15T07:09:10.480Z,73.14
2024-01-15T07:11:46.309Z,73.57
2024-01-15T07:14:17.246Z,73.11
2024-01-15T07:16:49.110Z,73.56
2024-01-15T07:19:20.172Z,73.68
2024-01-15T07:21:52.768Z,73.77
2024-01-15T07:24:25.146Z,73.75
2024-01-15T07:26:56.233Z,73.46
2024-01-15T07:29:25.552Z,72.86
2024-01-15T07:31:56.807Z,72.77
2024-01-15T07:34:28.147Z,72.65
2024-01-15T07:36:59.352Z,72.99
2024-01-15T07:39:31.882Z,72.64
2024-01-15T07:42:02.982Z,72.24
2024-01-15T07:44:32.225Z,72.17
2024-01-15T07:47:03.145Z,72.30
2024-01-15T07:49:34.180Z,72.31
2024-01-15T07:52:06.408Z,72.68
2024-01-15T07:54:37.343Z,72.93
2024-01-15T07:57:07.081Z,72.90
2024-01-15T07:59:37.062Z,73.44
2024-01-15T08:02:08.062Z,73.59
2024-01-15T08:04:38.930Z,73.26
2024-01-15T08:07:09.997Z,72.78
2024-01-15T08:09:41.095Z,72.42
2024-01-15T08:12:12.943Z,72.75
2024-01-15T08:14:43.918Z,72.46
2024-01-15T08:17:13.187Z,72.30
2024-01-15T08:19:44.656Z,72.34
2024-01-15T08:22:15.869Z,72.22
2024-01-15T08:24:46.828Z,71.60
2024-01-15T08:27:17.911Z,71.81
2024-01-15T08:29:48.852Z,71.65
2024-01-15T08:32:18.104Z,71.25
2024-01-15T08:34:50.651Z,71.40
2024-01-15T08:37:21.753Z,71.32
2024-01-15T08:39:52.736Z,71.40
2024-01-15T08:42:23.741Z,71.28
2024-01-15T08:44:54.700Z,70.76
2024-01-15T08:47:23.986Z,70.44
2024-01-15T08:49:55.473Z,70.39
2024-01-15T08:52:26.444Z,70.60
2024-01-15T08:54:57.828Z,69.99
2024-01-15T08:57:28.960Z,69.70
2024-01-15T09:00:00.338Z,68.91
2024-01-15T09:02:31.304Z,68.78
2024-01-15T09:05:02.306Z,67.99
2024-01-15T09:07:33.421Z,67.36
2024-01-15T09:10:04.484Z,68.48
2024-01-15T09:12:35.438Z,67.68
2024-01-15T09:15:07.324Z,67.05
2024-01-15T09:17:38.469Z,66.12
2024-01-15T09:20:11.542Z,65.09
2024-01-15T09:22:43.868Z,64.18
2024-01-15T09:25:15.178Z,63.96
2024-01-15T09:27:46.241Z,63.80
2024-01-15T09:30:18.414Z,63.48
2024-01-15T09:32:49.915Z,63.25
2024-01-15T09:35:23.674Z,63.79
2024-01-15T09:37:56.079Z,61.94
2024-01-15T09:40:33.330Z,60.57
2024-01-15T09:43:05.127Z,60.14
2024-01-15T09:45:36.465Z,59.56
2024-01-15T09:48:09.174Z,58.86
2024-01-15T09:50:40.126Z,58.84
2024-01-15T09:53:11.224Z,58.31
2024-01-15T09:55:42.252Z,57.82
2024-01-15T09:58:14.211Z,56.97
2024-01-15T10:00:46.811Z,56.49
2024-01-15T10:03:17.986Z,56.06
2024-01-15T10:05:49.199Z,55.80
2024-01-15T10:08:20.695Z,55.79
2024-01-15T10:10:51.850Z,54.97
2024-01-15T10:13:23.672Z,54.58
2024-01-15T10:15:55.459Z,53.88
2024-01-15T10:18:26.686Z,53.24
2024-01-15T10:20:59.156Z,52.75
2024-01-15T10:23:30.947Z,53.56
2024-01-15T10:26:02.312Z,52.82
2024-01-15T10:28:33.733Z,52.81
2024-01-15T10:31:05.174Z,53.38
2024-01-15T10:33:36.361Z,53.06
2024-01-15T10:36:13.603Z,52.27
2024-01-15T10:38:46.111Z,51.90
2024-01-15T10:41:17.266Z,51.39
2024-01-15T10:43:48.264Z,51.54
2024-01-15T10:46:19.640Z,51.34
2024-01-15T10:48:50.709Z,50.64
2024-01-15T10:51:22.050Z,50.64
2024-01-15T10:53:53.369Z,50.43
2024-01-15T10:56:26.222Z,50.31
2024-01-15T10:59:00.783Z,49.72
2024-01-15T11:01:32.948Z,48.74
2024-01-15T11:04:04.473Z,46.98
2024-01-15T11:06:45.860Z,46.52
2024-01-15T11:09:18.946Z,44.52
2024-01-15T11:11:53.675Z,43.98
2024-01-15T11:14:45.092Z,43.69
2024-01-15T11:17:17.364Z,42.59
2024-01-15T11:19:52.316Z,43.53
2024-01-15T11:22:53.198Z,42.85
2024-01-15T11:25:24.223Z,42.90
2024-01-15T11:27:56.886Z,43.33
2024-01-15T11:30:30.071Z,43.17
2024-01-15T11:33:01.424Z,42.38
2024-01-15T11:35:52.266Z,42.33
2024-01-15T11:38:32.652Z,41.81
2024-01-15T11:41:15.651Z,42.14
2024-01-15T11:43:46.569Z,42.10
2024-01-15T11:46:20.944Z,42.65
2024-01-15T11:49:03.990Z,43.02
2024-01-15T11:51:36.071Z,42.49
2024-01-15T11:54:12.959Z,42.45
2024-01-15T11:56:44.043Z,42.50
2024-01-15T11:59:15.359Z,42.17
2024-01-15T12:01:46.619Z,41.65
2024-01-15T12:04:21.078Z,41.70
2024-01-15T12:06:52.190Z,41.75
2024-01-15T12:09:24.706Z,41.86
2024-01-15T12:12:07.003Z,41.83
2024-01-15T12:14:37.988Z,41.55
2024-01-15T12:17:09.298Z,40.93
2024-01-15T12:19:40.333Z,41.28
2024-01-15T12:22:11.664Z,41.39
2024-01-15T12:24:42.670Z,41.36
2024-01-15T12:27:13.659Z,41.65
2024-01-15T12:29:45.410Z,41.57
2024-01-15T12:32:17.637Z,40.88
2024-01-15T12:34:48.567Z,40.99
2024-01-15T12:37:21.918Z,40.46
2024-01-15T12:39:56.032Z,40.44
2024-01-15T12:42:27.499Z,40.85
2024-01-15T12:44:59.437Z,40.45
2024-01-15T12:47:30.542Z,40.59
2024-01-15T12:50:10.032Z,40.12
2024-01-15T12:52:48.190Z,40.19
2024-01-15T12:55:19.666Z,40.33
2024-01-15T12:57:53.859Z,40.81
2024-01-15T13:00:27.021Z,40.84
2024-01-15T13:02:59.235Z,40.71
2024-01-15T13:05:31.712Z,40.96
2024-01-15T13:08:02.845Z,40.73
2024-01-15T13:10:33.960Z,40.36
2024-01-15T13:13:06.151Z,40.14
2024-01-15T13:15:37.533Z,40.19
2024-01-15T13:18:10.034Z,48.68
2024-01-15T13:20:41.352Z,47.26
2024-01-15T13:23:12.823Z,46.21
2024-01-15T13:25:43.776Z,46.86
2024-01-15T13:28:14.723Z,46.65
2024-01-15T13:30:45.995Z,42.79
2024-01-15T13:33:17.306Z,41.81
2024-01-15T13:35:51.353Z,41.59
2024-01-15T13:38:22.266Z,41.38
2024-01-15T13:40:53.309Z,41.65
2024-01-15T13:43:25.269Z,41.52
2024-01-15T13:45:56.498Z,41.70
2024-01-15T13:48:27.546Z,41.43
2024-01-15T13:50:58.617Z,41.72
2024-01-15T13:53:30.946Z,42.08
2024-01-15T13:56:02.110Z,42.56
2024-01-15T13:58:33.985Z,42.83
2024-01-15T14:01:05.646Z,42.64
2024-01-15T14:03:36.766Z,43.06
2024-01-15T14:06:10.107Z,43.21
2024-01-15T14:08:41.152Z,43.68
2024-01-15T14:11:12.540Z,44.45
2024-01-15T14:13:43.808Z,45.15
2024-01-15T14:16:14.769Z,45.58
2024-01-15T14:18:45.820Z,45.86
2024-01-15T14:21:16.955Z,45.96
2024-01-15T14:23:47.962Z,46.43
2024-01-15T14:26:18.925Z,46.41
2024-01-15T14:28:51.994Z,46.77
2024-01-15T14:31:26.236Z,47.75
2024-01-15T14:33:57.617Z,48.13
2024-01-15T14:36:28.557Z,48.34
2024-01-15T14:38:59.602Z,48.77
2024-01-15T14:41:30.636Z,49.20
2024-01-15T14:44:01.541Z,49.64
2024-01-15T14:46:32.832Z,49.31
2024-01-15T14:49:03.879Z,49.52
2024-01-15T14:51:34.878Z,49.50
2024-01-15T14:54:06.211Z,49.76
2024-01-15T14:56:37.131Z,49.81
2024-01-15T14:59:08.119Z,49.76
2024-01-15T15:01:39.224Z,50.21
2024-01-15T15:04:11.700Z,50.39
2024-01-15T15:06:43.102Z,50.73
2024-01-15T15:09:14.223Z,50.87
2024-01-15T15:11:45.510Z,50.99
2024-01-15T15:14:16.545Z,51.09
2024-01-15T15:16:47.967Z,51.38
2024-01-15T15:19:20.429Z,52.10
2024-01-15T15:21:51.621Z,52.77
2024-01-15T15:24:22.591Z,53.25
2024-01-15T15:26:55.570Z,52.98
2024-01-15T15:29:26.734Z,52.55
2024-01-15T15:31:57.634Z,52.54
2024-01-15T15:34:28.592Z,52.94
2024-01-15T15:36:59.796Z,52.95
2024-01-15T15:39:32.208Z,53.18
2024-01-15T15:42:03.759Z,53.39
2024-01-15T15:44:34.879Z,53.84
2024-01-15T15:47:05.985Z,54.32
2024-01-15T15:49:37.501Z,54.59
2024-01-15T15:52:09.129Z,54.77
2024-01-15T15:54:40.114Z,55.00
2024-01-15T15:57:11.140Z,55.04
2024-01-15T15:59:42.144Z,55.39
2024-01-15T16:02:13.162Z,55.71
2024-01-15T16:04:44.072Z,55.82
2024-01-15T16:07:15.744Z,56.26
2024-01-15T16:09:46.710Z,56.56
2024-01-15T16:12:17.665Z,56.16
2024-01-15T16:14:48.771Z,56.12
2024-01-15T16:23:15.295Z,56.19
2024-01-15T16:23:29.403Z,56.52
2024-01-15T16:23:51.754Z,56.95
2024-01-15T16:25:54.549Z,57.17
2024-01-15T16:28:25.824Z,57.20
2024-01-15T16:31:02.213Z,57.56
2024-01-15T16:33:35.890Z,57.54
2024-01-15T16:36:07.190Z,57.13
2024-01-15T16:38:38.300Z,57.61
2024-01-15T16:41:09.564Z,57.48
2024-01-15T16:43:40.414Z,57.39
2024-01-15T16:46:12.290Z,57.47
2024-01-15T16:48:43.220Z,57.64
2024-01-15T16:51:15.450Z,58.11
2024-01-15T16:53:46.355Z,58.06
2024-01-15T16:56:17.404Z,57.69
2024-01-15T16:58:48.327Z,57.70
2024-01-15T17:01:19.230Z,57.79
2024-01-15T17:03:50.580Z,57.95
2024-01-15T17:06:21.525Z,58.07
2024-01-15T17:08:52.711Z,58.18
2024-01-15T17:11:23.727Z,58.24
2024-01-15T17:13:54.855Z,58.35
2024-01-15T17:16:25.731Z,58.26
2024-01-15T17:18:56.663Z,58.56
2024-01-15T17:21:27.610Z,58.60
2024-01-15T17:23:59.200Z,59.33
2024-01-15T17:26:30.184Z,59.60
2024-01-15T17:29:01.343Z,59.65
2024-01-15T17:31:32.262Z,59.71
2024-01-15T17:34:03.618Z,59.50
2024-01-15T17:36:34.556Z,59.20
2024-01-15T17:39:07.546Z,58.99
2024-01-15T17:41:38.618Z,59.24
2024-01-15T17:44:09.554Z,59.34
2024-01-15T17:46:40.543Z,59.42
2024-01-15T17:49:11.505Z,59.65
2024-01-15T17:51:42.451Z,59.59
2024-01-15T17:54:13.363Z,59.73
2024-01-15T17:56:44.643Z,59.93
2024-01-15T17:59:15.694Z,59.90
2024-01-15T18:01:48.378Z,59.86
2024-01-15T18:04:20.910Z,59.95
2024-01-15T18:06:53.091Z,60.03
2024-01-15T18:09:23.986Z,60.34
2024-01-15T18:12:00.648Z,60.43
2024-01-15T18:14:31.752Z,60.45
2024-01-15T18:17:02.766Z,60.62
2024-01-15T18:19:33.744Z,60.59
2024-01-15T18:22:05.977Z,60.77
2024-01-15T18:24:37.515Z,60.77
2024-01-15T18:27:09.620Z,60.72
2024-01-15T18:29:40.834Z,60.56
2024-01-15T18:32:12.420Z,60.62
2024-01-15T18:34:44.203Z,60.88
2024-01-15T18:37:15.746Z,61.05
2024-01-15T18:39:47.950Z,61.10
2024-01-15T18:42:19.195Z,61.15
2024-01-15T18:44:50.531Z,61.26
2024-01-15T18:47:21.953Z,61.27
2024-01-15T18:49:53.069Z,61.38
2024-01-15T18:52:24.030Z,61.56
2024-01-15T18:54:55.047Z,61.52
2024-01-15T18:57:26.028Z,61.72
2024-01-15T18:59:56.942Z,61.91
2024-01-15T19:02:30.540Z,61.82
2024-01-15T19:05:01.665Z,61.69
2024-01-15T19:07:34.099Z,61.58
2024-01-15T19:10:06.305Z,64.82
2024-01-15T19:12:37.303Z,77.27
2024-01-15T19:15:10.267Z,68.23
2024-01-15T19:17:41.270Z,64.44
2024-01-15T19:20:14.936Z,62.84
2024-01-15T19:22:46.028Z,62.24
2024-01-15T19:25:17.075Z,62.00
2024-01-15T19:27:48.173Z,62.02
2024-01-15T19:30:19.788Z,62.01
2024-01-15T19:32:50.852Z,61.97
2024-01-15T19:35:21.882Z,61.99
2024-01-15T19:37:52.813Z,62.01
2024-01-15T19:40:23.913Z,61.97
2024-01-15T19:42:54.802Z,62.19
2024-01-15T19:45:25.700Z,62.29
2024-01-15T19:47:57.131Z,62.31
2024-01-15T19:50:28.354Z,62.41
2024-01-15T19:52:59.295Z,62.46
2024-01-15T19:55:30.290Z,62.53
2024-01-15T19:58:01.230Z,62.88
2024-01-15T20:00:32.218Z,62.98
2024-01-15T20:03:03.796Z,63.08
2024-01-15T20:05:34.849Z,63.03
2024-01-15T20:08:06.306Z,63.01
2024-01-15T20:10:39.593Z,62.81
2024-01-15T20:13:10.486Z,63.15
2024-01-15T20:15:41.578Z,63.29
2024-01-15T20:18:12.698Z,63.40
2024-01-15T20:20:43.950Z,63.32
2024-01-15T20:23:14.931Z,63.30
2024-01-15T20:25:45.875Z,63.13
2024-01-15T20:28:16.760Z,63.11
2024-01-15T20:30:47.912Z,62.98
2024-01-15T20:33:20.052Z,62.96
2024-01-15T20:35:52.179Z,63.21
2024-01-15T20:38:23.204Z,63.40
2024-01-15T20:40:54.074Z,63.24
2024-01-15T20:43:23.343Z,63.39
2024-01-15T20:45:55.986Z,63.54
2024-01-15T20:48:28.715Z,63.32
2024-01-15T20:51:00.173Z,63.85
2024-01-15T20:53:32.998Z,64.02
2024-01-15T20:56:04.123Z,63.79
2024-01-15T20:58:36.075Z,63.94
2024-01-15T21:01:09.923Z,63.95
2024-01-15T21:03:40.883Z,64.31
2024-01-15T21:06:12.260Z,64.53
2024-01-15T21:08:44.564Z,64.57
2024-01-15T21:11:15.996Z,64.41
2024-01-15T21:13:46.939Z,64.50
2024-01-15T21:16:16.243Z,64.69
2024-01-15T21:18:48.322Z,65.04
2024-01-15T21:21:19.978Z,64.87
2024-01-15T21:23:50.912Z,65.35
2024-01-15T21:26:21.884Z,65.51
2024-01-15T21:28:52.852Z,65.36
2024-01-15T21:31:22.164Z,65.21
2024-01-15T21:33:53.137Z,64.59
2024-01-15T21:36:24.091Z,64.03
2024-01-15T21:38:55.002Z,63.67
2024-01-15T21:41:26.060Z,63.20
2024-01-15T21:43:57.180Z,62.97
2024-01-15T21:46:28.443Z,61.98
2024-01-15T21:48:59.868Z,61.49
2024-01-15T21:51:30.841Z,60.76
2024-01-15T21:54:02.945Z,60.30
2024-01-15T21:56:34.138Z,59.78
2024-01-15T21:59:06.409Z,59.77
2024-01-15T22:01:37.404Z,59.15
2024-01-15T22:04:08.526Z,59.37
2024-01-15T22:06:39.643Z,59.05
2024-01-15T22:09:10.677Z,58.74
2024-01-15T22:11:44.675Z,58.47
2024-01-15T22:14:16.543Z,58.28
2024-01-15T22:16:47.936Z,57.85
2024-01-15T22:19:19.114Z,57.56
2024-01-15T22:21:50.742Z,57.44
2024-01-15T22:24:21.594Z,57.06
2024-01-15T22:26:51.118Z,57.21
2024-01-15T22:29:20.442Z,56.57
2024-01-15T22:31:51.454Z,56.66
2024-01-15T22:34:22.437Z,56.52
2024-01-15T22:36:53.770Z,56.53
2024-01-15T22:39:24.711Z,56.30
2024-01-15T22:41:55.623Z,56.34
2024-01-15T22:44:26.671Z,56.18
2024-01-15T22:46:57.713Z,56.29
2024-01-15T22:49:28.674Z,56.16
2024-01-15T22:51:59.571Z,56.30
2024-01-15T22:54:30.520Z,56.22
2024-01-15T22:57:01.404Z,56.07
2024-01-15T22:59:32.341Z,55.74
2024-01-15T23:02:03.387Z,55.69
2024-01-15T23:04:34.477Z,55.59
2024-01-15T23:07:06.366Z,55.51
2024-01-15T23:09:37.653Z,54.99
2024-01-15T23:12:10.009Z,54.70
2024-01-15T23:14:41.032Z,54.41
2024-01-15T23:17:12.191Z,54.38
2024-01-15T23:19:43.136Z,54.30
2024-01-15T23:22:14.079Z,53.94
2024-01-15T23:24:45.108Z,53.73
2024-01-15T23:27:16.292Z,53.24
2024-01-15T23:29:47.192Z,52.92
2024-01-15T23:32:18.181Z,52.46
2024-01-15T23:34:49.627Z,52.39
2024-01-15T23:37:20.621Z,52.12
2024-01-15T23:39:51.633Z,52.27
2024-01-15T23:42:22.924Z,51.79
2024-01-15T23:44:53.804Z,51.75
2024-01-15T23:47:24.873Z,51.61
2024-01-15T23:49:56.155Z,51.63
2024-01-15T23:52:27.248Z,51.20
2024-01-15T23:54:58.127Z,50.99
2024-01-15T23:57:29.050Z,50.20
2024-01-15T23:59:59.972Z,49.65
